sensor_id;sensor_type;location;lat;lon;timestamp;temperature;humidity
46900;DHT22;32647;49.382;7.078;2022-10-31T00:00:35;8.90;99.90
46900;DHT22;32647;49.382;7.078;2022-10-31T00:03:21;8.90;99.90
46900;DHT22;32647;49.382;7.078;2022-10-31T00:06:07;8.90;99.90
46900;DHT22;32647;49.382;7.078;2022-10-31T00:08:59;8.80;99.90
46900;DHT22;32647;49.382;7.078;2022-10-31T00:11:45;8.80;99.90
46900;DHT22;32647;49.382;7.078;2022-10-31T00:14:31;8.90;99.90
46900;DHT22;32647;49.382;7.078;2022-10-31T00:17:17;8.90;99.90
46900;DHT22;32647;49.382;7.078;2022-10-31T00:20:03;8.90;99.90
46900;DHT22;32647;49.382;7.078;2022-10-31T00:22:49;8.80;99.90
46900;DHT22;32647;49.382;7.078;2022-10-31T00:25:37;8.80;99.90
46900;DHT22;32647;49.382;7.078;2022-10-31T00:28:24;8.80;99.90
46900;DHT22;32647;49.382;7.078;2022-10-31T00:31:11;8.80;99.90
46900;DHT22;32647;49.382;7.078;2022-10-31T00:33:57;8.90;99.90
46900;DHT22;32647;49.382;7.078;2022-10-31T00:36:44;8.90;99.90
46900;DHT22;32647;49.382;7.078;2022-10-31T00:39:29;9.00;99.90
46900;DHT22;32647;49.382;7.078;2022-10-31T00:42:16;9.00;99.90
46900;DHT22;32647;49.382;7.078;2022-10-31T00:45:02;9.00;99.90
46900;DHT22;32647;49.382;7.078;2022-10-31T00:47:48;9.00;99.90
46900;DHT22;32647;49.382;7.078;2022-10-31T00:50:34;9.00;99.90
46900;DHT22;32647;49.382;7.078;2022-10-31T00:53:20;9.00;99.90
46900;DHT22;32647;49.382;7.078;2022-10-31T00:56:06;9.00;99.90
46900;DHT22;32647;49.382;7.078;2022-10-31T00:58:52;9.00;99.90
46900;DHT22;32647;49.382;7.078;2022-10-31T01:01:38;9.00;99.90
46900;DHT22;32647;49.382;7.078;2022-10-31T01:04:24;9.00;99.90
46900;DHT22;32647;49.382;7.078;2022-10-31T01:07:10;9.00;99.90
46900;DHT22;32647;49.382;7.078;2022-10-31T01:09:57;9.00;99.90
46900;DHT22;32647;49.382;7.078;2022-10-31T01:12:46;9.10;99.90
46900;DHT22;32647;49.382;7.078;2022-10-31T01:15:32;9.10;99.90
46900;DHT22;32647;49.382;7.078;2022-10-31T01:18:18;9.00;99.90
46900;DHT22;32647;49.382;7.078;2022-10-31T01:21:07;9.10;99.90
46900;DHT22;32647;49.382;7.078;2022-10-31T01:23:54;9.10;99.90
46900;DHT22;32647;49.382;7.078;2022-10-31T01:26:41;9.10;99.90
46900;DHT22;32647;49.382;7.078;2022-10-31T01:29:27;9.00;99.90
46900;DHT22;32647;49.382;7.078;2022-10-31T01:32:13;8.90;99.90
46900;DHT22;32647;49.382;7.078;2022-10-31T01:34:59;8.90;99.90
46900;DHT22;32647;49.382;7.078;2022-10-31T01:37:45;9.00;99.90
46900;DHT22;32647;49.382;7.078;2022-10-31T01:40:31;9.00;99.90
46900;DHT22;32647;49.382;7.078;2022-10-31T01:43:18;9.10;99.90
46900;DHT22;32647;49.382;7.078;2022-10-31T01:46:04;9.10;99.90
46900;DHT22;32647;49.382;7.078;2022-10-31T01:48:52;9.10;99.90
46900;DHT22;32647;49.382;7.078;2022-10-31T01:51:42;9.10;99.90
46900;DHT22;32647;49.382;7.078;2022-10-31T01:54:33;9.10;99.90
46900;DHT22;32647;49.382;7.078;2022-10-31T01:57:21;9.10;99.90
46900;DHT22;32647;49.382;7.078;2022-10-31T02:00:09;9.00;99.90
46900;DHT22;32647;49.382;7.078;2022-10-31T02:02:55;9.00;99.90
46900;DHT22;32647;49.382;7.078;2022-10-31T02:05:42;9.00;99.90
46900;DHT22;32647;49.382;7.078;2022-10-31T02:08:30;8.90;99.90
46900;DHT22;32647;49.382;7.078;2022-10-31T02:11:18;8.80;99.90
46900;DHT22;32647;49.382;7.078;2022-10-31T02:14:04;8.80;99.90
46900;DHT22;32647;49.382;7.078;2022-10-31T02:16:50;8.70;99.90
46900;DHT22;32647;49.382;7.078;2022-10-31T02:19:41;8.70;99.90
46900;DHT22;32647;49.382;7.078;2022-10-31T02:29:23;8.80;99.90
46900;DHT22;32647;49.382;7.078;2022-10-31T02:32:20;8.80;99.90
46900;DHT22;32647;49.382;7.078;2022-10-31T02:47:37;8.90;99.90
46900;DHT22;32647;49.382;7.078;2022-10-31T02:50:31;8.90;99.90
46900;DHT22;32647;49.382;7.078;2022-10-31T02:53:17;8.90;99.90
46900;DHT22;32647;49.382;7.078;2022-10-31T02:56:17;8.80;99.90
46900;DHT22;32647;49.382;7.078;2022-10-31T02:59:04;8.90;99.90
46900;DHT22;32647;49.382;7.078;2022-10-31T03:02:06;8.80;99.90
46900;DHT22;32647;49.382;7.078;2022-10-31T03:10:59;8.90;99.90
46900;DHT22;32647;49.382;7.078;2022-10-31T03:13:59;9.00;99.90
46900;DHT22;32647;49.382;7.078;2022-10-31T03:16:50;8.90;99.90
46900;DHT22;32647;49.382;7.078;2022-10-31T03:19:43;8.90;99.90
46900;DHT22;32647;49.382;7.078;2022-10-31T03:22:32;8.80;99.90
46900;DHT22;32647;49.382;7.078;2022-10-31T03:25:18;8.90;99.90
46900;DHT22;32647;49.382;7.078;2022-10-31T03:28:06;9.00;99.90
46900;DHT22;32647;49.382;7.078;2022-10-31T03:30:54;9.00;99.90
46900;DHT22;32647;49.382;7.078;2022-10-31T03:33:42;9.00;99.90
46900;DHT22;32647;49.382;7.078;2022-10-31T03:36:33;9.00;99.90
46900;DHT22;32647;49.382;7.078;2022-10-31T03:39:22;9.00;99.90
46900;DHT22;32647;49.382;7.078;2022-10-31T03:42:14;9.00;99.90
46900;DHT22;32647;49.382;7.078;2022-10-31T03:47:53;9.00;99.90
46900;DHT22;32647;49.382;7.078;2022-10-31T03:50:52;9.00;99.90
46900;DHT22;32647;49.382;7.078;2022-10-31T03:53:59;9.00;99.90
46900;DHT22;32647;49.382;7.078;2022-10-31T03:56:55;9.00;99.90
46900;DHT22;32647;49.382;7.078;2022-10-31T03:59:45;8.90;99.90
46900;DHT22;32647;49.382;7.078;2022-10-31T04:02:35;9.00;99.90
46900;DHT22;32647;49.382;7.078;2022-10-31T04:05:22;9.00;99.90
46900;DHT22;32647;49.382;7.078;2022-10-31T04:08:12;9.00;99.90
46900;DHT22;32647;49.382;7.078;2022-10-31T04:11:00;9.10;99.90
46900;DHT22;32647;49.382;7.078;2022-10-31T04:13:48;9.20;99.90
46900;DHT22;32647;49.382;7.078;2022-10-31T04:16:35;9.20;99.90
46900;DHT22;32647;49.382;7.078;2022-10-31T04:19:21;9.20;99.90
46900;DHT22;32647;49.382;7.078;2022-10-31T04:22:07;9.10;99.90
46900;DHT22;32647;49.382;7.078;2022-10-31T04:24:53;9.10;99.90
46900;DHT22;32647;49.382;7.078;2022-10-31T04:27:39;9.00;99.90
46900;DHT22;32647;49.382;7.078;2022-10-31T04:30:25;9.00;99.90
46900;DHT22;32647;49.382;7.078;2022-10-31T04:33:11;9.00;99.90
46900;DHT22;32647;49.382;7.078;2022-10-31T04:35:57;9.00;99.90
46900;DHT22;32647;49.382;7.078;2022-10-31T04:38:43;8.90;99.90
46900;DHT22;32647;49.382;7.078;2022-10-31T04:41:29;8.90;99.90
46900;DHT22;32647;49.382;7.078;2022-10-31T04:44:15;9.00;99.90
46900;DHT22;32647;49.382;7.078;2022-10-31T04:47:01;9.00;99.90
46900;DHT22;32647;49.382;7.078;2022-10-31T04:49:47;8.90;99.90
46900;DHT22;32647;49.382;7.078;2022-10-31T04:52:39;8.80;99.90
46900;DHT22;32647;49.382;7.078;2022-10-31T04:55:25;8.80;99.90
46900;DHT22;32647;49.382;7.078;2022-10-31T04:58:11;8.70;99.90
46900;DHT22;32647;49.382;7.078;2022-10-31T05:00:57;8.80;99.90
46900;DHT22;32647;49.382;7.078;2022-10-31T05:03:43;8.80;99.90
46900;DHT22;32647;49.382;7.078;2022-10-31T05:06:29;8.70;99.90
46900;DHT22;32647;49.382;7.078;2022-10-31T05:09:15;8.60;99.90
46900;DHT22;32647;49.382;7.078;2022-10-31T05:12:01;8.60;99.90
46900;DHT22;32647;49.382;7.078;2022-10-31T05:14:47;8.50;99.90
46900;DHT22;32647;49.382;7.078;2022-10-31T05:17:32;8.60;99.90
46900;DHT22;32647;49.382;7.078;2022-10-31T05:20:20;8.40;99.90
46900;DHT22;32647;49.382;7.078;2022-10-31T05:23:06;8.50;99.90
46900;DHT22;32647;49.382;7.078;2022-10-31T05:25:52;8.50;99.90
46900;DHT22;32647;49.382;7.078;2022-10-31T05:28:38;8.60;99.90
46900;DHT22;32647;49.382;7.078;2022-10-31T05:31:24;8.60;99.90
46900;DHT22;32647;49.382;7.078;2022-10-31T05:36:38;8.50;99.90
46900;DHT22;32647;49.382;7.078;2022-10-31T05:39:24;8.40;99.90
46900;DHT22;32647;49.382;7.078;2022-10-31T05:42:10;8.40;99.90
46900;DHT22;32647;49.382;7.078;2022-10-31T05:44:56;8.30;99.90
46900;DHT22;32647;49.382;7.078;2022-10-31T05:47:42;8.30;99.90
46900;DHT22;32647;49.382;7.078;2022-10-31T05:50:30;8.20;99.90
46900;DHT22;32647;49.382;7.078;2022-10-31T05:53:16;8.30;99.90
46900;DHT22;32647;49.382;7.078;2022-10-31T05:56:02;8.20;99.90
46900;DHT22;32647;49.382;7.078;2022-10-31T05:58:48;8.20;99.90
46900;DHT22;32647;49.382;7.078;2022-10-31T06:01:34;8.20;99.90
46900;DHT22;32647;49.382;7.078;2022-10-31T06:04:20;8.20;99.90
46900;DHT22;32647;49.382;7.078;2022-10-31T06:07:06;8.20;99.90
46900;DHT22;32647;49.382;7.078;2022-10-31T06:09:52;8.10;99.90
46900;DHT22;32647;49.382;7.078;2022-10-31T06:12:38;8.00;99.90
46900;DHT22;32647;49.382;7.078;2022-10-31T06:15:26;8.00;99.90
46900;DHT22;32647;49.382;7.078;2022-10-31T06:18:12;8.00;99.90
46900;DHT22;32647;49.382;7.078;2022-10-31T06:20:58;8.00;99.90
46900;DHT22;32647;49.382;7.078;2022-10-31T06:23:44;8.00;99.90
46900;DHT22;32647;49.382;7.078;2022-10-31T06:26:33;8.00;99.90
46900;DHT22;32647;49.382;7.078;2022-10-31T06:29:19;8.00;99.90
46900;DHT22;32647;49.382;7.078;2022-10-31T06:32:05;8.10;99.90
46900;DHT22;32647;49.382;7.078;2022-10-31T06:34:51;8.10;99.90
46900;DHT22;32647;49.382;7.078;2022-10-31T06:37:37;8.00;99.90
46900;DHT22;32647;49.382;7.078;2022-10-31T06:40:23;8.10;99.90
46900;DHT22;32647;49.382;7.078;2022-10-31T06:43:09;8.10;99.90
46900;DHT22;32647;49.382;7.078;2022-10-31T06:45:57;8.10;99.90
46900;DHT22;32647;49.382;7.078;2022-10-31T06:48:43;8.10;99.90
46900;DHT22;32647;49.382;7.078;2022-10-31T06:51:29;8.20;99.90
46900;DHT22;32647;49.382;7.078;2022-10-31T06:54:15;8.20;99.90
46900;DHT22;32647;49.382;7.078;2022-10-31T06:57:01;8.20;99.90
46900;DHT22;32647;49.382;7.078;2022-10-31T06:59:47;8.30;99.90
46900;DHT22;32647;49.382;7.078;2022-10-31T07:02:33;8.30;99.90
46900;DHT22;32647;49.382;7.078;2022-10-31T07:05:19;8.40;99.90
46900;DHT22;32647;49.382;7.078;2022-10-31T07:08:08;8.40;99.90
46900;DHT22;32647;49.382;7.078;2022-10-31T07:10:56;8.50;99.90
46900;DHT22;32647;49.382;7.078;2022-10-31T07:13:43;8.60;99.90
46900;DHT22;32647;49.382;7.078;2022-10-31T07:16:29;8.70;99.90
46900;DHT22;32647;49.382;7.078;2022-10-31T07:19:15;8.80;99.90
46900;DHT22;32647;49.382;7.078;2022-10-31T07:22:01;8.90;99.90
46900;DHT22;32647;49.382;7.078;2022-10-31T07:24:46;9.00;99.90
46900;DHT22;32647;49.382;7.078;2022-10-31T07:27:37;9.10;99.90
46900;DHT22;32647;49.382;7.078;2022-10-31T07:30:23;9.20;99.90
46900;DHT22;32647;49.382;7.078;2022-10-31T07:33:09;9.30;99.90
46900;DHT22;32647;49.382;7.078;2022-10-31T07:35:55;9.40;99.90
46900;DHT22;32647;49.382;7.078;2022-10-31T07:38:41;9.50;99.90
46900;DHT22;32647;49.382;7.078;2022-10-31T07:41:27;9.60;99.90
46900;DHT22;32647;49.382;7.078;2022-10-31T07:44:13;9.70;99.90
46900;DHT22;32647;49.382;7.078;2022-10-31T07:46:59;9.70;99.90
46900;DHT22;32647;49.382;7.078;2022-10-31T07:49:48;9.60;99.90
46900;DHT22;32647;49.382;7.078;2022-10-31T07:52:34;9.60;99.90
46900;DHT22;32647;49.382;7.078;2022-10-31T07:55:20;9.70;99.90
46900;DHT22;32647;49.382;7.078;2022-10-31T07:58:13;9.70;99.90
46900;DHT22;32647;49.382;7.078;2022-10-31T08:00:59;9.60;99.90
46900;DHT22;32647;49.382;7.078;2022-10-31T08:03:45;9.80;99.90
46900;DHT22;32647;49.382;7.078;2022-10-31T08:06:34;9.80;99.90
46900;DHT22;32647;49.382;7.078;2022-10-31T08:09:23;10.00;99.90
46900;DHT22;32647;49.382;7.078;2022-10-31T08:12:09;10.10;99.90
46900;DHT22;32647;49.382;7.078;2022-10-31T08:14:55;10.20;99.90
46900;DHT22;32647;49.382;7.078;2022-10-31T08:17:40;10.30;99.90
46900;DHT22;32647;49.382;7.078;2022-10-31T08:20:26;10.50;99.90
46900;DHT22;32647;49.382;7.078;2022-10-31T08:23:13;10.60;99.90
46900;DHT22;32647;49.382;7.078;2022-10-31T08:25:59;10.70;99.90
46900;DHT22;32647;49.382;7.078;2022-10-31T08:28:45;10.80;99.90
46900;DHT22;32647;49.382;7.078;2022-10-31T08:31:32;10.90;99.90
46900;DHT22;32647;49.382;7.078;2022-10-31T08:34:18;10.90;99.90
46900;DHT22;32647;49.382;7.078;2022-10-31T08:37:04;11.10;99.90
46900;DHT22;32647;49.382;7.078;2022-10-31T08:39:49;11.30;99.90
46900;DHT22;32647;49.382;7.078;2022-10-31T08:42:35;11.40;99.90
46900;DHT22;32647;49.382;7.078;2022-10-31T08:45:21;11.50;99.90
46900;DHT22;32647;49.382;7.078;2022-10-31T08:48:13;11.60;99.90
46900;DHT22;32647;49.382;7.078;2022-10-31T08:50:59;11.80;99.90
46900;DHT22;32647;49.382;7.078;2022-10-31T08:53:45;11.90;99.90
46900;DHT22;32647;49.382;7.078;2022-10-31T08:56:31;11.90;99.90
46900;DHT22;32647;49.382;7.078;2022-10-31T08:59:17;12.00;99.90
46900;DHT22;32647;49.382;7.078;2022-10-31T09:02:04;12.10;99.90
46900;DHT22;32647;49.382;7.078;2022-10-31T09:04:50;12.20;99.90
46900;DHT22;32647;49.382;7.078;2022-10-31T09:07:36;12.20;99.90
46900;DHT22;32647;49.382;7.078;2022-10-31T09:10:22;12.20;99.90
46900;DHT22;32647;49.382;7.078;2022-10-31T09:13:26;12.30;99.90
46900;DHT22;32647;49.382;7.078;2022-10-31T09:16:12;12.40;99.90
46900;DHT22;32647;49.382;7.078;2022-10-31T09:18:58;12.50;99.90
46900;DHT22;32647;49.382;7.078;2022-10-31T09:21:56;12.60;99.90
46900;DHT22;32647;49.382;7.078;2022-10-31T09:24:44;12.70;99.90
46900;DHT22;32647;49.382;7.078;2022-10-31T09:27:33;12.70;99.90
46900;DHT22;32647;49.382;7.078;2022-10-31T09:30:19;12.90;99.90
46900;DHT22;32647;49.382;7.078;2022-10-31T09:33:08;12.90;99.90
46900;DHT22;32647;49.382;7.078;2022-10-31T09:36:01;13.10;99.90
46900;DHT22;32647;49.382;7.078;2022-10-31T09:38:51;13.20;99.90
46900;DHT22;32647;49.382;7.078;2022-10-31T09:44:48;13.30;99.90
46900;DHT22;32647;49.382;7.078;2022-10-31T09:51:10;13.50;99.90
46900;DHT22;32647;49.382;7.078;2022-10-31T09:54:02;13.60;99.90
46900;DHT22;32647;49.382;7.078;2022-10-31T09:56:50;13.70;99.90
46900;DHT22;32647;49.382;7.078;2022-10-31T09:59:39;13.80;99.90
46900;DHT22;32647;49.382;7.078;2022-10-31T10:05:49;14.10;99.90
46900;DHT22;32647;49.382;7.078;2022-10-31T10:08:37;14.20;99.90
46900;DHT22;32647;49.382;7.078;2022-10-31T10:17:40;14.70;99.90
46900;DHT22;32647;49.382;7.078;2022-10-31T10:23:35;14.80;99.90
46900;DHT22;32647;49.382;7.078;2022-10-31T10:26:30;14.90;99.90
46900;DHT22;32647;49.382;7.078;2022-10-31T10:32:25;15.20;99.90
46900;DHT22;32647;49.382;7.078;2022-10-31T10:38:29;15.80;99.90
46900;DHT22;32647;49.382;7.078;2022-10-31T10:41:22;15.90;99.90
46900;DHT22;32647;49.382;7.078;2022-10-31T10:44:09;15.90;99.90
46900;DHT22;32647;49.382;7.078;2022-10-31T10:46:58;16.00;99.90
46900;DHT22;32647;49.382;7.078;2022-10-31T10:50:27;16.10;99.90
46900;DHT22;32647;49.382;7.078;2022-10-31T10:53:55;16.20;99.90
46900;DHT22;32647;49.382;7.078;2022-10-31T10:59:51;16.20;99.90
46900;DHT22;32647;49.382;7.078;2022-10-31T11:02:37;16.30;99.90
46900;DHT22;32647;49.382;7.078;2022-10-31T11:05:40;16.40;99.90
46900;DHT22;32647;49.382;7.078;2022-10-31T11:08:30;16.50;99.90
46900;DHT22;32647;49.382;7.078;2022-10-31T11:14:11;16.50;99.90
46900;DHT22;32647;49.382;7.078;2022-10-31T11:17:11;16.40;99.90
46900;DHT22;32647;49.382;7.078;2022-10-31T11:20:20;16.20;99.90
46900;DHT22;32647;49.382;7.078;2022-10-31T11:23:20;16.50;99.90
46900;DHT22;32647;49.382;7.078;2022-10-31T11:26:18;16.60;99.90
46900;DHT22;32647;49.382;7.078;2022-10-31T11:29:09;16.60;99.90
46900;DHT22;32647;49.382;7.078;2022-10-31T11:32:00;16.70;99.90
46900;DHT22;32647;49.382;7.078;2022-10-31T11:34:48;16.80;99.90
46900;DHT22;32647;49.382;7.078;2022-10-31T11:37:41;16.90;99.90
46900;DHT22;32647;49.382;7.078;2022-10-31T11:40:27;16.80;99.90
46900;DHT22;32647;49.382;7.078;2022-10-31T11:43:15;16.70;99.90
46900;DHT22;32647;49.382;7.078;2022-10-31T11:46:10;16.60;99.90
46900;DHT22;32647;49.382;7.078;2022-10-31T11:48:57;16.60;99.90
46900;DHT22;32647;49.382;7.078;2022-10-31T11:51:49;16.70;99.90
46900;DHT22;32647;49.382;7.078;2022-10-31T11:54:49;16.70;99.90
46900;DHT22;32647;49.382;7.078;2022-10-31T11:57:44;16.70;99.90
46900;DHT22;32647;49.382;7.078;2022-10-31T12:00:33;16.80;99.90
46900;DHT22;32647;49.382;7.078;2022-10-31T12:15:29;16.70;99.90
46900;DHT22;32647;49.382;7.078;2022-10-31T12:25:12;17.00;99.90
46900;DHT22;32647;49.382;7.078;2022-10-31T12:28:18;17.00;99.90
46900;DHT22;32647;49.382;7.078;2022-10-31T12:34:30;16.90;99.90
46900;DHT22;32647;49.382;7.078;2022-10-31T12:37:38;16.80;99.90
46900;DHT22;32647;49.382;7.078;2022-10-31T12:47:07;17.00;99.90
46900;DHT22;32647;49.382;7.078;2022-10-31T12:58:41;18.20;97.20
46900;DHT22;32647;49.382;7.078;2022-10-31T13:01:34;18.10;97.20
46900;DHT22;32647;49.382;7.078;2022-10-31T13:04:44;18.10;99.90
46900;DHT22;32647;49.382;7.078;2022-10-31T13:10:44;17.80;99.90
46900;DHT22;32647;49.382;7.078;2022-10-31T13:13:44;17.30;99.90
46900;DHT22;32647;49.382;7.078;2022-10-31T13:16:37;17.20;99.90
46900;DHT22;32647;49.382;7.078;2022-10-31T13:19:31;17.30;99.90
46900;DHT22;32647;49.382;7.078;2022-10-31T13:22:24;17.20;99.90
46900;DHT22;32647;49.382;7.078;2022-10-31T13:25:13;17.40;99.90
46900;DHT22;32647;49.382;7.078;2022-10-31T13:28:12;17.50;99.90
46900;DHT22;32647;49.382;7.078;2022-10-31T13:31:00;17.40;99.90
46900;DHT22;32647;49.382;7.078;2022-10-31T13:33:52;17.10;99.90
46900;DHT22;32647;49.382;7.078;2022-10-31T13:39:56;16.90;99.90
46900;DHT22;32647;49.382;7.078;2022-10-31T13:46:01;17.10;99.90
46900;DHT22;32647;49.382;7.078;2022-10-31T13:48:48;17.10;99.90
46900;DHT22;32647;49.382;7.078;2022-10-31T13:51:34;17.20;99.90
46900;DHT22;32647;49.382;7.078;2022-10-31T13:54:44;17.00;99.90
46900;DHT22;32647;49.382;7.078;2022-10-31T13:57:48;16.90;99.90
46900;DHT22;32647;49.382;7.078;2022-10-31T14:00:35;17.10;99.90
46900;DHT22;32647;49.382;7.078;2022-10-31T14:03:22;17.20;99.90
46900;DHT22;32647;49.382;7.078;2022-10-31T14:06:11;17.10;99.90
46900;DHT22;32647;49.382;7.078;2022-10-31T14:08:57;16.80;99.90
46900;DHT22;32647;49.382;7.078;2022-10-31T14:11:46;16.80;99.90
46900;DHT22;32647;49.382;7.078;2022-10-31T14:14:46;16.90;99.90
46900;DHT22;32647;49.382;7.078;2022-10-31T14:17:45;16.80;99.90
46900;DHT22;32647;49.382;7.078;2022-10-31T14:32:11;17.60;99.90
46900;DHT22;32647;49.382;7.078;2022-10-31T14:35:01;18.00;99.90
46900;DHT22;32647;49.382;7.078;2022-10-31T14:50:43;17.90;99.90
46900;DHT22;32647;49.382;7.078;2022-10-31T14:53:34;17.70;99.90
46900;DHT22;32647;49.382;7.078;2022-10-31T14:59:14;17.40;99.90
46900;DHT22;32647;49.382;7.078;2022-10-31T15:02:33;17.30;99.90
46900;DHT22;32647;49.382;7.078;2022-10-31T15:05:22;16.90;99.90
46900;DHT22;32647;49.382;7.078;2022-10-31T15:11:14;16.60;99.90
46900;DHT22;32647;49.382;7.078;2022-10-31T15:14:01;16.30;99.90
46900;DHT22;32647;49.382;7.078;2022-10-31T15:16:48;16.20;99.90
46900;DHT22;32647;49.382;7.078;2022-10-31T15:19:34;16.10;99.90
46900;DHT22;32647;49.382;7.078;2022-10-31T15:22:23;15.90;99.90
46900;DHT22;32647;49.382;7.078;2022-10-31T15:25:22;15.70;99.90
46900;DHT22;32647;49.382;7.078;2022-10-31T15:28:35;15.70;99.90
46900;DHT22;32647;49.382;7.078;2022-10-31T15:31:21;15.60;99.90
46900;DHT22;32647;49.382;7.078;2022-10-31T15:34:21;15.50;99.90
46900;DHT22;32647;49.382;7.078;2022-10-31T15:37:16;15.60;99.90
46900;DHT22;32647;49.382;7.078;2022-10-31T15:40:16;15.50;99.90
46900;DHT22;32647;49.382;7.078;2022-10-31T15:43:04;15.50;99.90
46900;DHT22;32647;49.382;7.078;2022-10-31T15:45:52;15.70;99.90
46900;DHT22;32647;49.382;7.078;2022-10-31T15:48:38;15.70;99.90
46900;DHT22;32647;49.382;7.078;2022-10-31T15:51:28;15.50;99.90
46900;DHT22;32647;49.382;7.078;2022-10-31T15:54:15;15.00;99.90
46900;DHT22;32647;49.382;7.078;2022-10-31T15:57:02;14.90;99.90
46900;DHT22;32647;49.382;7.078;2022-10-31T15:59:50;15.00;99.90
46900;DHT22;32647;49.382;7.078;2022-10-31T16:02:37;14.80;99.90
46900;DHT22;32647;49.382;7.078;2022-10-31T16:05:33;14.60;99.90
46900;DHT22;32647;49.382;7.078;2022-10-31T16:14:25;14.50;99.90
46900;DHT22;32647;49.382;7.078;2022-10-31T16:17:14;14.40;99.90
46900;DHT22;32647;49.382;7.078;2022-10-31T16:20:04;14.30;99.90
46900;DHT22;32647;49.382;7.078;2022-10-31T16:22:53;14.20;99.90
46900;DHT22;32647;49.382;7.078;2022-10-31T16:25:40;14.20;99.90
46900;DHT22;32647;49.382;7.078;2022-10-31T16:28:26;14.20;99.90
46900;DHT22;32647;49.382;7.078;2022-10-31T16:31:13;14.20;99.90
46900;DHT22;32647;49.382;7.078;2022-10-31T16:34:05;14.20;99.90
46900;DHT22;32647;49.382;7.078;2022-10-31T16:36:55;14.10;99.90
46900;DHT22;32647;49.382;7.078;2022-10-31T16:39:43;13.90;99.90
46900;DHT22;32647;49.382;7.078;2022-10-31T16:42:29;13.80;99.90
46900;DHT22;32647;49.382;7.078;2022-10-31T16:45:21;13.80;99.90
46900;DHT22;32647;49.382;7.078;2022-10-31T16:48:13;13.80;99.90
46900;DHT22;32647;49.382;7.078;2022-10-31T16:51:01;13.80;99.90
46900;DHT22;32647;49.382;7.078;2022-10-31T16:53:46;13.70;99.90
46900;DHT22;32647;49.382;7.078;2022-10-31T16:56:34;13.50;99.90
46900;DHT22;32647;49.382;7.078;2022-10-31T16:59:21;13.30;99.90
46900;DHT22;32647;49.382;7.078;2022-10-31T17:02:14;13.20;99.90
46900;DHT22;32647;49.382;7.078;2022-10-31T17:05:10;13.10;99.90
46900;DHT22;32647;49.382;7.078;2022-10-31T17:07:57;13.00;99.90
46900;DHT22;32647;49.382;7.078;2022-10-31T17:10:44;13.00;99.90
46900;DHT22;32647;49.382;7.078;2022-10-31T17:13:33;13.00;99.90
46900;DHT22;32647;49.382;7.078;2022-10-31T17:16:19;12.80;99.90
46900;DHT22;32647;49.382;7.078;2022-10-31T17:19:10;12.70;99.90
46900;DHT22;32647;49.382;7.078;2022-10-31T17:21:56;12.80;99.90
46900;DHT22;32647;49.382;7.078;2022-10-31T17:24:42;12.60;99.90
46900;DHT22;32647;49.382;7.078;2022-10-31T17:27:28;12.60;99.90
46900;DHT22;32647;49.382;7.078;2022-10-31T17:30:15;12.60;99.90
46900;DHT22;32647;49.382;7.078;2022-10-31T17:33:03;12.50;99.90
46900;DHT22;32647;49.382;7.078;2022-10-31T17:35:49;12.40;99.90
46900;DHT22;32647;49.382;7.078;2022-10-31T17:38:36;12.10;99.90
46900;DHT22;32647;49.382;7.078;2022-10-31T17:41:22;12.10;99.90
46900;DHT22;32647;49.382;7.078;2022-10-31T17:44:12;12.00;99.90
46900;DHT22;32647;49.382;7.078;2022-10-31T17:46:58;11.90;99.90
46900;DHT22;32647;49.382;7.078;2022-10-31T17:49:44;12.00;99.90
46900;DHT22;32647;49.382;7.078;2022-10-31T17:52:30;12.00;99.90
46900;DHT22;32647;49.382;7.078;2022-10-31T17:55:17;11.90;99.90
46900;DHT22;32647;49.382;7.078;2022-10-31T17:58:03;11.80;99.90
46900;DHT22;32647;49.382;7.078;2022-10-31T18:00:49;11.70;99.90
46900;DHT22;32647;49.382;7.078;2022-10-31T18:03:36;11.70;99.90
46900;DHT22;32647;49.382;7.078;2022-10-31T18:06:22;11.60;99.90
46900;DHT22;32647;49.382;7.078;2022-10-31T18:09:08;11.50;99.90
46900;DHT22;32647;49.382;7.078;2022-10-31T18:11:54;11.40;99.90
46900;DHT22;32647;49.382;7.078;2022-10-31T18:14:41;11.40;99.90
46900;DHT22;32647;49.382;7.078;2022-10-31T18:17:27;11.40;99.90
46900;DHT22;32647;49.382;7.078;2022-10-31T18:20:13;11.40;99.90
46900;DHT22;32647;49.382;7.078;2022-10-31T18:22:59;11.40;99.90
46900;DHT22;32647;49.382;7.078;2022-10-31T18:25:45;11.20;99.90
46900;DHT22;32647;49.382;7.078;2022-10-31T18:28:31;11.20;99.90
46900;DHT22;32647;49.382;7.078;2022-10-31T18:31:18;11.10;99.90
46900;DHT22;32647;49.382;7.078;2022-10-31T18:34:04;11.20;99.90
46900;DHT22;32647;49.382;7.078;2022-10-31T18:36:51;11.20;99.90
46900;DHT22;32647;49.382;7.078;2022-10-31T18:39:37;11.10;99.90
46900;DHT22;32647;49.382;7.078;2022-10-31T18:42:23;11.10;99.90
46900;DHT22;32647;49.382;7.078;2022-10-31T18:45:09;11.20;99.90
46900;DHT22;32647;49.382;7.078;2022-10-31T18:47:55;11.20;99.90
46900;DHT22;32647;49.382;7.078;2022-10-31T18:50:42;11.20;99.90
46900;DHT22;32647;49.382;7.078;2022-10-31T18:53:28;11.10;99.90
46900;DHT22;32647;49.382;7.078;2022-10-31T18:56:14;11.10;99.90
46900;DHT22;32647;49.382;7.078;2022-10-31T18:59:00;11.20;99.90
46900;DHT22;32647;49.382;7.078;2022-10-31T19:01:47;11.30;99.90
46900;DHT22;32647;49.382;7.078;2022-10-31T19:04:33;11.20;99.90
46900;DHT22;32647;49.382;7.078;2022-10-31T19:07:19;11.20;99.90
46900;DHT22;32647;49.382;7.078;2022-10-31T19:10:05;11.40;99.90
46900;DHT22;32647;49.382;7.078;2022-10-31T19:12:51;11.50;99.90
46900;DHT22;32647;49.382;7.078;2022-10-31T19:15:38;11.60;99.90
46900;DHT22;32647;49.382;7.078;2022-10-31T19:18:25;11.50;99.90
46900;DHT22;32647;49.382;7.078;2022-10-31T19:21:16;11.40;99.90
46900;DHT22;32647;49.382;7.078;2022-10-31T19:24:02;11.20;99.90
46900;DHT22;32647;49.382;7.078;2022-10-31T19:26:48;11.20;99.90
46900;DHT22;32647;49.382;7.078;2022-10-31T19:29:36;11.20;99.90
46900;DHT22;32647;49.382;7.078;2022-10-31T19:32:23;11.20;99.90
46900;DHT22;32647;49.382;7.078;2022-10-31T19:35:09;11.00;99.90
46900;DHT22;32647;49.382;7.078;2022-10-31T19:37:56;11.00;99.90
46900;DHT22;32647;49.382;7.078;2022-10-31T19:40:42;11.00;99.90
46900;DHT22;32647;49.382;7.078;2022-10-31T19:43:28;11.10;99.90
46900;DHT22;32647;49.382;7.078;2022-10-31T19:46:16;11.10;99.90
46900;DHT22;32647;49.382;7.078;2022-10-31T19:49:02;11.20;99.90
46900;DHT22;32647;49.382;7.078;2022-10-31T19:51:49;11.20;99.90
46900;DHT22;32647;49.382;7.078;2022-10-31T19:54:35;11.30;99.90
46900;DHT22;32647;49.382;7.078;2022-10-31T19:57:21;11.10;99.90
46900;DHT22;32647;49.382;7.078;2022-10-31T20:00:07;11.10;99.90
46900;DHT22;32647;49.382;7.078;2022-10-31T20:02:54;11.00;99.90
46900;DHT22;32647;49.382;7.078;2022-10-31T20:05:40;10.90;99.90
46900;DHT22;32647;49.382;7.078;2022-10-31T20:08:27;10.90;99.90
46900;DHT22;32647;49.382;7.078;2022-10-31T20:11:13;11.00;99.90
46900;DHT22;32647;49.382;7.078;2022-10-31T20:14:00;10.90;99.90
46900;DHT22;32647;49.382;7.078;2022-10-31T20:16:46;10.90;99.90
46900;DHT22;32647;49.382;7.078;2022-10-31T20:19:34;10.90;99.90